sensor_id;sensor_type;location;lat;lon;timestamp;temperature;humidity
42145;DHT22;27813;43.516;11.890;2024-03-17T00:03:38;5.50;96.20
42145;DHT22;27813;43.516;11.890;2024-03-17T00:07:41;5.50;96.10
42145;DHT22;27813;43.516;11.890;2024-03-17T00:11:45;5.40;96.00
42145;DHT22;27813;43.516;11.890;2024-03-17T00:15:51;5.30;95.80
42145;DHT22;27813;43.516;11.890;2024-03-17T00:19:53;5.20;95.70
42145;DHT22;27813;43.516;11.890;2024-03-17T00:23:56;5.10;95.70
42145;DHT22;27813;43.516;11.890;2024-03-17T00:28:00;5.10;95.80
42145;DHT22;27813;43.516;11.890;2024-03-17T00:32:04;5.00;95.90
42145;DHT22;27813;43.516;11.890;2024-03-17T00:36:07;5.10;96.10
42145;DHT22;27813;43.516;11.890;2024-03-17T00:40:10;5.00;96.00
42145;DHT22;27813;43.516;11.890;2024-03-17T00:44:14;5.00;95.90
42145;DHT22;27813;43.516;11.890;2024-03-17T00:48:17;5.00;96.00
42145;DHT22;27813;43.516;11.890;2024-03-17T00:52:21;4.90;96.00
42145;DHT22;27813;43.516;11.890;2024-03-17T00:56:24;4.90;96.10
42145;DHT22;27813;43.516;11.890;2024-03-17T01:00:27;4.90;96.20
42145;DHT22;27813;43.516;11.890;2024-03-17T01:04:30;4.80;96.10
42145;DHT22;27813;43.516;11.890;2024-03-17T01:08:36;4.80;96.00
42145;DHT22;27813;43.516;11.890;2024-03-17T01:12:39;4.70;96.10
42145;DHT22;27813;43.516;11.890;2024-03-17T01:16:42;4.70;96.00
42145;DHT22;27813;43.516;11.890;2024-03-17T01:20:45;4.60;95.80
42145;DHT22;27813;43.516;11.890;2024-03-17T01:24:48;4.50;95.70
42145;DHT22;27813;43.516;11.890;2024-03-17T01:28:51;4.60;96.30
42145;DHT22;27813;43.516;11.890;2024-03-17T01:32:56;4.70;96.40
42145;DHT22;27813;43.516;11.890;2024-03-17T01:36:59;4.70;96.30
42145;DHT22;27813;43.516;11.890;2024-03-17T01:41:04;4.80;96.30
42145;DHT22;27813;43.516;11.890;2024-03-17T01:49:20;4.70;96.20
42145;DHT22;27813;43.516;11.890;2024-03-17T01:53:25;4.70;96.30
42145;DHT22;27813;43.516;11.890;2024-03-17T01:57:27;4.70;96.30
42145;DHT22;27813;43.516;11.890;2024-03-17T02:01:31;4.70;96.60
42145;DHT22;27813;43.516;11.890;2024-03-17T02:05:38;4.80;96.50
42145;DHT22;27813;43.516;11.890;2024-03-17T02:09:42;4.80;96.30
42145;DHT22;27813;43.516;11.890;2024-03-17T02:13:46;4.70;96.30
42145;DHT22;27813;43.516;11.890;2024-03-17T02:17:48;4.80;96.50
42145;DHT22;27813;43.516;11.890;2024-03-17T02:21:51;4.80;96.60
42145;DHT22;27813;43.516;11.890;2024-03-17T02:25:54;4.80;96.60
42145;DHT22;27813;43.516;11.890;2024-03-17T02:29:56;4.70;96.30
42145;DHT22;27813;43.516;11.890;2024-03-17T02:33:59;4.70;96.30
42145;DHT22;27813;43.516;11.890;2024-03-17T02:38:02;4.60;96.40
42145;DHT22;27813;43.516;11.890;2024-03-17T02:42:09;4.60;96.50
42145;DHT22;27813;43.516;11.890;2024-03-17T02:46:14;4.60;96.30
42145;DHT22;27813;43.516;11.890;2024-03-17T02:50:17;4.60;96.40
42145;DHT22;27813;43.516;11.890;2024-03-17T02:54:23;4.60;96.60
42145;DHT22;27813;43.516;11.890;2024-03-17T02:58:27;4.60;96.20
42145;DHT22;27813;43.516;11.890;2024-03-17T03:02:41;4.50;95.90
42145;DHT22;27813;43.516;11.890;2024-03-17T03:06:44;4.40;95.80
42145;DHT22;27813;43.516;11.890;2024-03-17T03:10:47;4.50;96.50
42145;DHT22;27813;43.516;11.890;2024-03-17T03:14:51;4.70;97.00
42145;DHT22;27813;43.516;11.890;2024-03-17T03:18:54;4.80;97.10
42145;DHT22;27813;43.516;11.890;2024-03-17T03:22:57;4.80;97.00
42145;DHT22;27813;43.516;11.890;2024-03-17T03:27:00;4.70;96.80
42145;DHT22;27813;43.516;11.890;2024-03-17T03:31:03;4.60;96.80
42145;DHT22;27813;43.516;11.890;2024-03-17T03:35:06;4.50;96.60
42145;DHT22;27813;43.516;11.890;2024-03-17T03:39:09;4.50;96.60
42145;DHT22;27813;43.516;11.890;2024-03-17T03:43:14;4.40;96.40
42145;DHT22;27813;43.516;11.890;2024-03-17T03:47:17;4.40;96.80
42145;DHT22;27813;43.516;11.890;2024-03-17T03:51:20;4.40;96.50
42145;DHT22;27813;43.516;11.890;2024-03-17T03:55:23;4.50;96.60
42145;DHT22;27813;43.516;11.890;2024-03-17T03:59:27;4.70;96.90
42145;DHT22;27813;43.516;11.890;2024-03-17T04:03:32;4.80;96.80
42145;DHT22;27813;43.516;11.890;2024-03-17T04:07:37;4.80;96.60
42145;DHT22;27813;43.516;11.890;2024-03-17T04:11:40;4.70;96.50
42145;DHT22;27813;43.516;11.890;2024-03-17T04:15:43;4.70;96.70
42145;DHT22;27813;43.516;11.890;2024-03-17T04:19:51;4.80;97.10
42145;DHT22;27813;43.516;11.890;2024-03-17T04:23:54;4.90;97.30
42145;DHT22;27813;43.516;11.890;2024-03-17T04:27:57;5.00;97.30
42145;DHT22;27813;43.516;11.890;2024-03-17T04:32:00;5.00;97.40
42145;DHT22;27813;43.516;11.890;2024-03-17T04:36:04;5.00;97.40
42145;DHT22;27813;43.516;11.890;2024-03-17T04:40:08;4.90;97.30
42145;DHT22;27813;43.516;11.890;2024-03-17T04:44:15;4.80;96.80
42145;DHT22;27813;43.516;11.890;2024-03-17T04:48:18;4.50;96.50
42145;DHT22;27813;43.516;11.890;2024-03-17T04:52:21;4.40;96.30
42145;DHT22;27813;43.516;11.890;2024-03-17T04:56:24;4.40;96.30
42145;DHT22;27813;43.516;11.890;2024-03-17T05:00:27;4.40;96.60
42145;DHT22;27813;43.516;11.890;2024-03-17T05:04:30;4.40;96.90
42145;DHT22;27813;43.516;11.890;2024-03-17T05:08:34;4.40;96.90
42145;DHT22;27813;43.516;11.890;2024-03-17T05:12:37;4.40;96.80
42145;DHT22;27813;43.516;11.890;2024-03-17T05:16:40;4.30;96.80
42145;DHT22;27813;43.516;11.890;2024-03-17T05:20:43;4.40;97.10
42145;DHT22;27813;43.516;11.890;2024-03-17T05:24:46;4.50;97.20
42145;DHT22;27813;43.516;11.890;2024-03-17T05:28:51;4.40;96.90
42145;DHT22;27813;43.516;11.890;2024-03-17T05:32:53;4.40;96.90
42145;DHT22;27813;43.516;11.890;2024-03-17T05:36:56;4.50;97.20
42145;DHT22;27813;43.516;11.890;2024-03-17T05:41:04;4.50;97.30
42145;DHT22;27813;43.516;11.890;2024-03-17T05:45:09;4.60;97.30
42145;DHT22;27813;43.516;11.890;2024-03-17T05:49:13;4.70;97.30
42145;DHT22;27813;43.516;11.890;2024-03-17T05:53:16;4.80;97.40
42145;DHT22;27813;43.516;11.890;2024-03-17T05:57:20;4.90;97.50
42145;DHT22;27813;43.516;11.890;2024-03-17T06:01:23;5.10;97.70
42145;DHT22;27813;43.516;11.890;2024-03-17T06:05:26;5.20;97.80
42145;DHT22;27813;43.516;11.890;2024-03-17T06:09:29;5.40;97.90
42145;DHT22;27813;43.516;11.890;2024-03-17T06:13:32;5.50;98.10
42145;DHT22;27813;43.516;11.890;2024-03-17T06:17:35;5.80;98.30
42145;DHT22;27813;43.516;11.890;2024-03-17T06:21:38;6.00;98.40
42145;DHT22;27813;43.516;11.890;2024-03-17T06:25:46;6.30;98.60
42145;DHT22;27813;43.516;11.890;2024-03-17T06:29:49;6.40;98.50
42145;DHT22;27813;43.516;11.890;2024-03-17T06:33:52;6.70;98.70
42145;DHT22;27813;43.516;11.890;2024-03-17T06:37:59;7.10;99.00
42145;DHT22;27813;43.516;11.890;2024-03-17T06:42:03;7.40;98.70
42145;DHT22;27813;43.516;11.890;2024-03-17T06:46:06;7.50;98.30
42145;DHT22;27813;43.516;11.890;2024-03-17T06:50:10;7.50;98.10
42145;DHT22;27813;43.516;11.890;2024-03-17T06:54:14;7.50;97.90
42145;DHT22;27813;43.516;11.890;2024-03-17T06:58:17;7.50;97.90
42145;DHT22;27813;43.516;11.890;2024-03-17T07:02:22;7.50;97.90
42145;DHT22;27813;43.516;11.890;2024-03-17T07:06:25;7.60;97.90
42145;DHT22;27813;43.516;11.890;2024-03-17T07:10:30;7.50;97.40
42145;DHT22;27813;43.516;11.890;2024-03-17T07:14:34;7.50;97.30
42145;DHT22;27813;43.516;11.890;2024-03-17T07:18:37;7.50;97.50
42145;DHT22;27813;43.516;11.890;2024-03-17T07:22:40;7.60;97.70
42145;DHT22;27813;43.516;11.890;2024-03-17T07:26:43;7.70;97.60
42145;DHT22;27813;43.516;11.890;2024-03-17T07:30:47;7.70;97.60
42145;DHT22;27813;43.516;11.890;2024-03-17T07:34:50;7.80;97.60
42145;DHT22;27813;43.516;11.890;2024-03-17T07:38:53;7.90;97.70
42145;DHT22;27813;43.516;11.890;2024-03-17T07:42:56;8.00;97.50
42145;DHT22;27813;43.516;11.890;2024-03-17T07:47:01;8.10;97.40
42145;DHT22;27813;43.516;11.890;2024-03-17T07:51:12;8.20;97.40
42145;DHT22;27813;43.516;11.890;2024-03-17T07:55:16;8.20;97.40
42145;DHT22;27813;43.516;11.890;2024-03-17T07:59:19;8.30;97.50
42145;DHT22;27813;43.516;11.890;2024-03-17T08:03:22;8.40;97.60
42145;DHT22;27813;43.516;11.890;2024-03-17T08:07:24;8.40;97.60
42145;DHT22;27813;43.516;11.890;2024-03-17T08:11:27;8.50;97.70
42145;DHT22;27813;43.516;11.890;2024-03-17T08:15:30;8.70;97.80
42145;DHT22;27813;43.516;11.890;2024-03-17T08:19:33;8.80;97.80
42145;DHT22;27813;43.516;11.890;2024-03-17T08:23:36;8.90;97.80
42145;DHT22;27813;43.516;11.890;2024-03-17T08:27:44;9.00;98.00
42145;DHT22;27813;43.516;11.890;2024-03-17T08:31:46;9.10;98.10
42145;DHT22;27813;43.516;11.890;2024-03-17T08:36:02;9.30;98.10
42145;DHT22;27813;43.516;11.890;2024-03-17T08:40:09;9.40;98.00
42145;DHT22;27813;43.516;11.890;2024-03-17T08:44:12;9.40;98.00
42145;DHT22;27813;43.516;11.890;2024-03-17T08:48:18;9.50;98.00
42145;DHT22;27813;43.516;11.890;2024-03-17T08:52:21;9.70;98.10
42145;DHT22;27813;43.516;11.890;2024-03-17T08:56:24;9.80;98.00
42145;DHT22;27813;43.516;11.890;2024-03-17T09:00:27;9.90;98.00
42145;DHT22;27813;43.516;11.890;2024-03-17T09:04:31;10.10;98.20
42145;DHT22;27813;43.516;11.890;2024-03-17T09:08:34;10.20;98.20
42145;DHT22;27813;43.516;11.890;2024-03-17T09:12:37;10.40;98.20
42145;DHT22;27813;43.516;11.890;2024-03-17T09:16:40;10.50;98.10
42145;DHT22;27813;43.516;11.890;2024-03-17T09:20:42;10.80;98.10
42145;DHT22;27813;43.516;11.890;2024-03-17T09:24:45;11.00;98.10
42145;DHT22;27813;43.516;11.890;2024-03-17T09:28:49;11.10;97.90
42145;DHT22;27813;43.516;11.890;2024-03-17T09:32:53;11.30;98.10
42145;DHT22;27813;43.516;11.890;2024-03-17T09:36:56;11.50;98.20
42145;DHT22;27813;43.516;11.890;2024-03-17T09:40:58;11.90;98.40
42145;DHT22;27813;43.516;11.890;2024-03-17T09:45:04;12.20;98.50
42145;DHT22;27813;43.516;11.890;2024-03-17T09:49:15;12.50;98.60
42145;DHT22;27813;43.516;11.890;2024-03-17T09:53:28;13.00;98.70
42145;DHT22;27813;43.516;11.890;2024-03-17T09:57:32;13.30;98.60
42145;DHT22;27813;43.516;11.890;2024-03-17T10:01:38;13.70;98.40
42145;DHT22;27813;43.516;11.890;2024-03-17T10:05:41;14.00;98.00
42145;DHT22;27813;43.516;11.890;2024-03-17T10:09:44;14.10;97.60
42145;DHT22;27813;43.516;11.890;2024-03-17T10:14:05;14.20;97.40
42145;DHT22;27813;43.516;11.890;2024-03-17T10:18:21;14.40;97.00
42145;DHT22;27813;43.516;11.890;2024-03-17T10:22:26;14.50;96.70
42145;DHT22;27813;43.516;11.890;2024-03-17T10:26:29;14.50;96.60
42145;DHT22;27813;43.516;11.890;2024-03-17T10:30:35;14.60;96.70
42145;DHT22;27813;43.516;11.890;2024-03-17T10:34:40;14.70;96.60
42145;DHT22;27813;43.516;11.890;2024-03-17T10:38:51;14.70;96.50
42145;DHT22;27813;43.516;11.890;2024-03-17T10:42:59;14.70;96.40
42145;DHT22;27813;43.516;11.890;2024-03-17T10:47:03;14.70;96.50
42145;DHT22;27813;43.516;11.890;2024-03-17T10:51:18;14.80;96.70
42145;DHT22;27813;43.516;11.890;2024-03-17T10:55:25;14.90;96.90
42145;DHT22;27813;43.516;11.890;2024-03-17T10:59:40;15.10;97.00
42145;DHT22;27813;43.516;11.890;2024-03-17T11:03:46;15.30;96.70
42145;DHT22;27813;43.516;11.890;2024-03-17T11:07:51;15.50;96.40
42145;DHT22;27813;43.516;11.890;2024-03-17T11:11:54;15.60;96.20
42145;DHT22;27813;43.516;11.890;2024-03-17T11:15:58;15.60;96.30
42145;DHT22;27813;43.516;11.890;2024-03-17T11:20:21;15.70;96.30
42145;DHT22;27813;43.516;11.890;2024-03-17T11:24:27;15.70;96.40
42145;DHT22;27813;43.516;11.890;2024-03-17T11:28:46;15.90;96.80
42145;DHT22;27813;43.516;11.890;2024-03-17T11:32:55;16.10;97.10
42145;DHT22;27813;43.516;11.890;2024-03-17T11:37:01;16.40;97.30
42145;DHT22;27813;43.516;11.890;2024-03-17T11:45:39;16.80;97.20
42145;DHT22;27813;43.516;11.890;2024-03-17T11:49:43;17.10;97.50
42145;DHT22;27813;43.516;11.890;2024-03-17T11:53:58;17.40;97.50
42145;DHT22;27813;43.516;11.890;2024-03-17T11:58:01;17.70;97.20
42145;DHT22;27813;43.516;11.890;2024-03-17T12:02:19;18.00;97.20
42145;DHT22;27813;43.516;11.890;2024-03-17T12:06:23;18.30;96.90
42145;DHT22;27813;43.516;11.890;2024-03-17T12:10:26;18.60;96.90
42145;DHT22;27813;43.516;11.890;2024-03-17T12:14:29;18.90;96.60
42145;DHT22;27813;43.516;11.890;2024-03-17T12:18:33;19.10;96.20
42145;DHT22;27813;43.516;11.890;2024-03-17T12:22:38;19.30;95.90
42145;DHT22;27813;43.516;11.890;2024-03-17T12:26:45;19.40;95.90
42145;DHT22;27813;43.516;11.890;2024-03-17T12:30:48;19.50;95.60
42145;DHT22;27813;43.516;11.890;2024-03-17T12:34:56;19.60;95.20
42145;DHT22;27813;43.516;11.890;2024-03-17T12:39:32;19.70;95.00
42145;DHT22;27813;43.516;11.890;2024-03-17T12:43:35;19.60;94.80
42145;DHT22;27813;43.516;11.890;2024-03-17T12:47:39;19.60;94.80
42145;DHT22;27813;43.516;11.890;2024-03-17T12:51:43;19.50;95.00
42145;DHT22;27813;43.516;11.890;2024-03-17T12:56:22;19.40;95.40
42145;DHT22;27813;43.516;11.890;2024-03-17T13:00:44;19.30;95.30
42145;DHT22;27813;43.516;11.890;2024-03-17T13:04:46;19.30;95.50
42145;DHT22;27813;43.516;11.890;2024-03-17T13:09:10;19.20;95.60
42145;DHT22;27813;43.516;11.890;2024-03-17T13:13:13;19.20;95.60
42145;DHT22;27813;43.516;11.890;2024-03-17T13:17:19;19.30;95.90
42145;DHT22;27813;43.516;11.890;2024-03-17T13:21:22;19.40;96.00
42145;DHT22;27813;43.516;11.890;2024-03-17T13:25:29;19.50;96.00
42145;DHT22;27813;43.516;11.890;2024-03-17T13:29:50;19.60;96.00
42145;DHT22;27813;43.516;11.890;2024-03-17T13:33:53;19.70;96.00
42145;DHT22;27813;43.516;11.890;2024-03-17T13:37:57;19.70;96.00
42145;DHT22;27813;43.516;11.890;2024-03-17T13:42:05;19.80;96.00
42145;DHT22;27813;43.516;11.890;2024-03-17T13:46:08;19.90;95.90
42145;DHT22;27813;43.516;11.890;2024-03-17T13:50:12;20.00;95.80
42145;DHT22;27813;43.516;11.890;2024-03-17T13:54:15;20.00;95.60
42145;DHT22;27813;43.516;11.890;2024-03-17T13:58:19;20.20;95.40
42145;DHT22;27813;43.516;11.890;2024-03-17T14:02:22;20.20;95.20
42145;DHT22;27813;43.516;11.890;2024-03-17T14:06:28;20.10;95.20
42145;DHT22;27813;43.516;11.890;2024-03-17T14:10:31;20.20;95.30
42145;DHT22;27813;43.516;11.890;2024-03-17T14:14:33;20.20;95.20
42145;DHT22;27813;43.516;11.890;2024-03-17T14:18:36;20.20;95.00
42145;DHT22;27813;43.516;11.890;2024-03-17T14:22:41;20.30;94.90
42145;DHT22;27813;43.516;11.890;2024-03-17T14:26:44;20.30;94.80
42145;DHT22;27813;43.516;11.890;2024-03-17T14:30:48;20.20;94.70
42145;DHT22;27813;43.516;11.890;2024-03-17T14:34:51;20.10;94.80
42145;DHT22;27813;43.516;11.890;2024-03-17T14:38:54;20.00;95.00
42145;DHT22;27813;43.516;11.890;2024-03-17T14:42:57;20.00;95.10
42145;DHT22;27813;43.516;11.890;2024-03-17T14:47:00;20.00;95.10
42145;DHT22;27813;43.516;11.890;2024-03-17T14:51:03;20.00;95.10
42145;DHT22;27813;43.516;11.890;2024-03-17T14:55:06;20.00;95.10
42145;DHT22;27813;43.516;11.890;2024-03-17T14:59:09;20.00;94.90
42145;DHT22;27813;43.516;11.890;2024-03-17T15:03:15;20.00;94.90
42145;DHT22;27813;43.516;11.890;2024-03-17T15:07:19;20.00;95.10
42145;DHT22;27813;43.516;11.890;2024-03-17T15:11:22;19.90;95.10
42145;DHT22;27813;43.516;11.890;2024-03-17T15:15:25;19.90;95.10
42145;DHT22;27813;43.516;11.890;2024-03-17T15:19:28;19.70;95.20
42145;DHT22;27813;43.516;11.890;2024-03-17T15:23:33;19.60;95.20
42145;DHT22;27813;43.516;11.890;2024-03-17T15:27:36;19.50;95.40
42145;DHT22;27813;43.516;11.890;2024-03-17T15:31:40;19.30;95.50
42145;DHT22;27813;43.516;11.890;2024-03-17T15:35:43;19.20;95.70
42145;DHT22;27813;43.516;11.890;2024-03-17T15:39:47;19.00;95.80
42145;DHT22;27813;43.516;11.890;2024-03-17T15:43:51;18.90;96.00
42145;DHT22;27813;43.516;11.890;2024-03-17T15:47:54;18.90;96.10
42145;DHT22;27813;43.516;11.890;2024-03-17T15:52:02;18.90;96.10
42145;DHT22;27813;43.516;11.890;2024-03-17T15:56:16;18.80;96.10
42145;DHT22;27813;43.516;11.890;2024-03-17T16:00:19;18.70;96.10
42145;DHT22;27813;43.516;11.890;2024-03-17T16:04:23;18.60;96.20
42145;DHT22;27813;43.516;11.890;2024-03-17T16:08:33;18.50;96.30
42145;DHT22;27813;43.516;11.890;2024-03-17T16:12:52;18.40;96.40
42145;DHT22;27813;43.516;11.890;2024-03-17T16:17:24;18.30;96.40
42145;DHT22;27813;43.516;11.890;2024-03-17T16:21:34;18.20;96.50
42145;DHT22;27813;43.516;11.890;2024-03-17T16:25:37;18.00;96.50
42145;DHT22;27813;43.516;11.890;2024-03-17T16:29:40;18.00;96.50
42145;DHT22;27813;43.516;11.890;2024-03-17T16:33:44;17.70;96.40
42145;DHT22;27813;43.516;11.890;2024-03-17T16:37:48;17.50;96.50
42145;DHT22;27813;43.516;11.890;2024-03-17T16:41:52;17.40;96.60
42145;DHT22;27813;43.516;11.890;2024-03-17T16:46:06;17.20;96.60
42145;DHT22;27813;43.516;11.890;2024-03-17T16:50:12;17.00;96.70
42145;DHT22;27813;43.516;11.890;2024-03-17T16:54:17;16.80;96.70
42145;DHT22;27813;43.516;11.890;2024-03-17T16:58:20;16.50;96.70
42145;DHT22;27813;43.516;11.890;2024-03-17T17:02:24;16.40;96.80
42145;DHT22;27813;43.516;11.890;2024-03-17T17:06:27;16.20;96.90
42145;DHT22;27813;43.516;11.890;2024-03-17T17:10:32;16.00;97.00
42145;DHT22;27813;43.516;11.890;2024-03-17T17:14:36;15.90;97.00
42145;DHT22;27813;43.516;11.890;2024-03-17T17:18:54;15.80;97.10
42145;DHT22;27813;43.516;11.890;2024-03-17T17:22:59;15.60;97.20
42145;DHT22;27813;43.516;11.890;2024-03-17T17:27:06;15.50;97.30
42145;DHT22;27813;43.516;11.890;2024-03-17T17:31:14;15.50;97.40
42145;DHT22;27813;43.516;11.890;2024-03-17T17:35:17;15.40;97.40
42145;DHT22;27813;43.516;11.890;2024-03-17T17:39:20;15.20;97.30
42145;DHT22;27813;43.516;11.890;2024-03-17T17:43:24;15.10;97.30
42145;DHT22;27813;43.516;11.890;2024-03-17T17:47:29;15.00;97.30
42145;DHT22;27813;43.516;11.890;2024-03-17T17:51:34;14.90;97.40
42145;DHT22;27813;43.516;11.890;2024-03-17T17:55:37;14.80;97.60
42145;DHT22;27813;43.516;11.890;2024-03-17T17:59:41;14.80;97.70
42145;DHT22;27813;43.516;11.890;2024-03-17T18:03:45;14.70;97.60
42145;DHT22;27813;43.516;11.890;2024-03-17T18:07:51;14.60;97.50
42145;DHT22;27813;43.516;11.890;2024-03-17T18:11:56;14.50;97.50
42145;DHT22;27813;43.516;11.890;2024-03-17T18:16:04;14.40;97.50
42145;DHT22;27813;43.516;11.890;2024-03-17T18:20:10;14.30;97.50
42145;DHT22;27813;43.516;11.890;2024-03-17T18:24:15;14.20;97.60
42145;DHT22;27813;43.516;11.890;2024-03-17T18:28:20;14.20;97.80
42145;DHT22;27813;43.516;11.890;2024-03-17T18:32:23;14.20;97.80
42145;DHT22;27813;43.516;11.890;2024-03-17T18:36:27;14.10;97.90
42145;DHT22;27813;43.516;11.890;2024-03-17T18:40:30;14.00;97.90
42145;DHT22;27813;43.516;11.890;2024-03-17T18:44:33;14.00;97.90
42145;DHT22;27813;43.516;11.890;2024-03-17T18:48:36;14.00;97.90
42145;DHT22;27813;43.516;11.890;2024-03-17T18:52:39;13.90;97.90
42145;DHT22;27813;43.516;11.890;2024-03-17T18:56:44;13.80;97.90
42145;DHT22;27813;43.516;11.890;2024-03-17T19:00:55;13.80;97.90
42145;DHT22;27813;43.516;11.890;2024-03-17T19:04:59;13.70;98.00
42145;DHT22;27813;43.516;11.890;2024-03-17T19:09:02;13.70;98.00
42145;DHT22;27813;43.516;11.890;2024-03-17T19:13:13;13.60;98.00
42145;DHT22;27813;43.516;11.890;2024-03-17T19:17:18;13.50;98.00
42145;DHT22;27813;43.516;11.890;2024-03-17T19:21:21;13.50;98.00
42145;DHT22;27813;43.516;11.890;2024-03-17T19:25:24;13.40;97.90
42145;DHT22;27813;43.516;11.890;2024-03-17T19:29:28;13.30;97.80
42145;DHT22;27813;43.516;11.890;2024-03-17T19:33:34;13.30;97.90
42145;DHT22;27813;43.516;11.890;2024-03-17T19:37:40;13.20;97.90
42145;DHT22;27813;43.516;11.890;2024-03-17T19:41:46;13.10;97.90
42145;DHT22;27813;43.516;11.890;2024-03-17T19:46:06;13.00;97.80
42145;DHT22;27813;43.516;11.890;2024-03-17T19:50:13;13.00;97.90
42145;DHT22;27813;43.516;11.890;2024-03-17T19:54:19;13.00;97.90
42145;DHT22;27813;43.516;11.890;2024-03-17T19:58:24;13.00;98.00
42145;DHT22;27813;43.516;11.890;2024-03-17T20:02:30;13.00;98.10
42145;DHT22;27813;43.516;11.890;2024-03-17T20:06:36;13.00;98.10
42145;DHT22;27813;43.516;11.890;2024-03-17T20:10:41;12.90;98.00
42145;DHT22;27813;43.516;11.890;2024-03-17T20:14:51;12.80;97.80
42145;DHT22;27813;43.516;11.890;2024-03-17T20:18:56;12.60;97.50
42145;DHT22;27813;43.516;11.890;2024-03-17T20:23:04;12.40;97.10
42145;DHT22;27813;43.516;11.890;2024-03-17T20:27:10;12.20;96.90
42145;DHT22;27813;43.516;11.890;2024-03-17T20:31:20;12.00;96.80
42145;DHT22;27813;43.516;11.890;2024-03-17T20:35:27;11.90;96.60
42145;DHT22;27813;43.516;11.890;2024-03-17T20:39:36;11.80;96.60
42145;DHT22;27813;43.516;11.890;2024-03-17T20:44:04;11.70;96.60
42145;DHT22;27813;43.516;11.890;2024-03-17T20:48:10;11.50;96.50
42145;DHT22;27813;43.516;11.890;2024-03-17T20:52:23;11.50;96.30
42145;DHT22;27813;43.516;11.890;2024-03-17T20:56:30;11.40;96.30
42145;DHT22;27813;43.516;11.890;2024-03-17T21:00:41;11.20;96.20
42145;DHT22;27813;43.516;11.890;2024-03-17T21:04:55;11.10;96.10
42145;DHT22;27813;43.516;11.890;2024-03-17T21:08:59;10.90;95.90
42145;DHT22;27813;43.516;11.890;2024-03-17T21:13:03;10.80;95.70
42145;DHT22;27813;43.516;11.890;2024-03-17T21:17:16;10.60;95.50
42145;DHT22;27813;43.516;11.890;2024-03-17T21:21:22;10.40;95.50
42145;DHT22;27813;43.516;11.890;2024-03-17T21:25:27;10.30;95.70
42145;DHT22;27813;43.516;11.890;2024-03-17T21:29:32;10.20;95.70
42145;DHT22;27813;43.516;11.890;2024-03-17T21:33:43;10.20;96.00
42145;DHT22;27813;43.516;11.890;2024-03-17T21:37:47;10.20;96.10
42145;DHT22;27813;43.516;11.890;2024-03-17T21:41:51;10.10;96.00
42145;DHT22;27813;43.516;11.890;2024-03-17T21:46:01;10.00;95.90
42145;DHT22;27813;43.516;11.890;2024-03-17T21:50:04;9.90;95.70
42145;DHT22;27813;43.516;11.890;2024-03-17T21:54:07;9.80;95.60
42145;DHT22;27813;43.516;11.890;2024-03-17T21:58:11;9.70;95.70
42145;DHT22;27813;43.516;11.890;2024-03-17T22:02:14;9.50;95.70
42145;DHT22;27813;43.516;11.890;2024-03-17T22:06:18;9.50;95.90
42145;DHT22;27813;43.516;11.890;2024-03-17T22:10:21;9.40;96.20
42145;DHT22;27813;43.516;11.890;2024-03-17T22:14:26;9.40;96.50
42145;DHT22;27813;43.516;11.890;2024-03-17T22:18:33;9.40;96.70
42145;DHT22;27813;43.516;11.890;2024-03-17T22:22:37;9.40;96.70
42145;DHT22;27813;43.516;11.890;2024-03-17T22:26:40;9.30;96.60
42145;DHT22;27813;43.516;11.890;2024-03-17T22:30:52;9.30;96.60
42145;DHT22;27813;43.516;11.890;2024-03-17T22:34:58;9.30;96.60
42145;DHT22;27813;43.516;11.890;2024-03-17T22:39:01;9.20;96.60
42145;DHT22;27813;43.516;11.890;2024-03-17T22:43:05;9.20;96.60
42145;DHT22;27813;43.516;11.890;2024-03-17T22:47:09;9.10;96.70
42145;DHT22;27813;43.516;11.890;2024-03-17T22:51:15;9.10;96.50
42145;DHT22;27813;43.516;11.890;2024-03-17T22:55:21;9.00;96.40
42145;DHT22;27813;43.516;11.890;2024-03-17T22:59:26;9.00;96.60
42145;DHT22;27813;43.516;11.890;2024-03-17T23:03:31;8.90;96.80
42145;DHT22;27813;43.516;11.890;2024-03-17T23:07:33;9.00;96.80
42145;DHT22;27813;43.516;11.890;2024-03-17T23:11:38;8.90;96.90
42145;DHT22;27813;43.516;11.890;2024-03-17T23:15:42;9.00;97.10
42145;DHT22;27813;43.516;11.890;2024-03-17T23:19:49;9.10;97.20
42145;DHT22;27813;43.516;11.890;2024-03-17T23:23:53;9.10;97.30
42145;DHT22;27813;43.516;11.890;2024-03-17T23:27:55;9.10;97.30
42145;DHT22;27813;43.516;11.890;2024-03-17T23:31:58;9.10;97.30
42145;DHT22;27813;43.516;11.890;2024-03-17T23:36:01;9.10;97.20
42145;DHT22;27813;43.516;11.890;2024-03-17T23:40:06;9.00;97.20
42145;DHT22;27813;43.516;11.890;2024-03-17T23:44:12;9.00;97.20
42145;DHT22;27813;43.516;11.890;2024-03-17T23:48:15;9.00;97.20
42145;DHT22;27813;43.516;11.890;2024-03-17T23:52:18;8.90;97.10
42145;DHT22;27813;43.516;11.890;2024-03-17T23:56:22;8.90;97.10
